Time;durP1;ratioP1;P1;durP2;ratioP2;P2;SDS_P1;SDS_P2;PMS_P1;PMS_P2;Temp;Humidity;BMP_temperature;BMP_pressure;BME280_temperature;BME280_humidity;BME280_pressure;Samples;Min_cycle;Max_cycle;Signal;HPM_P1;HPM_P2
2020/02/29 00:00:19;;;;;;;3;2.1;;;;;;;3.82;61.02051;94772.88;;;;
2020/02/29 00:01:49;;;;;;;3;2.1;;;;;;;3.82;61.02051;94772.88;;;;
2020/02/29 00:02:52;;;;;;;3;2.1;;;;;;;3.82;61.02051;94772.88;;;;
2020/02/29 00:03:52;;;;;;;3;2.1;;;;;;;3.82;61.02051;94772.88;;;;
2020/02/29 00:04:54;;;;;;;3;2.1;;;;;;;3.82;61.02051;94772.88;;;;
2020/02/29 00:05:54;;;;;;;3;2.1;;;;;;;3.82;61.02051;94772.88;;;;
2020/02/29 00:06:55;;;;;;;2.65;2;;;;;;;3.65;60.96484;94749.4;;;;
2020/02/29 00:07:57;;;;;;;2.65;2;;;;;;;3.65;60.96484;94749.4;;;;
2020/02/29 00:08:57;;;;;;;2.65;2;;;;;;;3.65;60.96484;94749.4;;;;
2020/02/29 00:09:58;;;;;;;2.4;1.95;;;;;;;3.65;61.37793;94739.51;;;;
2020/02/29 00:11:40;;;;;;;2.4;1.95;;;;;;;3.65;61.37793;94739.51;;;;
2020/02/29 00:12:40;;;;;;;2.6;2;;;;;;;3.71;61.41602;94740.12;;;;
2020/02/29 00:13:41;;;;;;;2.6;2;;;;;;;3.71;61.41602;94740.12;;;;
2020/02/29 00:14:41;;;;;;;3.3;2.3;;;;;;;3.76;61.57129;94734.06;;;;
2020/02/29 00:15:42;;;;;;;3.3;2.3;;;;;;;3.76;61.57129;94734.06;;;;
2020/02/29 00:16:42;;;;;;;3.3;2.3;;;;;;;3.76;61.57129;94734.06;;;;
2020/02/29 00:17:43;;;;;;;3;2.299999;;;;;;;3.8;61.56738;94727.28;;;;
2020/02/29 00:18:43;;;;;;;3;2.299999;;;;;;;3.8;61.56738;94727.28;;;;
2020/02/29 00:19:44;;;;;;;3;2.299999;;;;;;;3.8;61.56738;94727.28;;;;
2020/02/29 00:20:45;;;;;;;3.55;2.35;;;;;;;3.83;61.73926;94728.74;;;;
2020/02/29 00:21:46;;;;;;;3.55;2.35;;;;;;;3.83;61.73926;94728.74;;;;
2020/02/29 00:22:47;;;;;;;3.55;2.35;;;;;;;3.83;61.73926;94728.74;;;;
2020/02/29 00:23:48;;;;;;;3.55;2.35;;;;;;;3.83;61.73926;94728.74;;;;
2020/02/29 00:24:50;;;;;;;3.55;2.35;;;;;;;3.83;61.73926;94728.74;;;;
2020/02/29 00:25:51;;;;;;;3.55;2.35;;;;;;;3.83;61.73926;94728.74;;;;
2020/02/29 00:26:52;;;;;;;3.55;2.35;;;;;;;3.83;61.73926;94728.74;;;;
2020/02/29 00:27:53;;;;;;;3.55;2.35;;;;;;;3.83;61.73926;94728.74;;;;
2020/02/29 00:28:53;;;;;;;3.55;2.35;;;;;;;3.83;61.73926;94728.74;;;;
2020/02/29 00:29:54;;;;;;;3.55;2.35;;;;;;;3.83;61.73926;94728.74;;;;
2020/02/29 00:30:55;;;;;;;2.4;2.2;;;;;;;3.59;61.55859;94730.19;;;;
2020/02/29 00:31:56;;;;;;;2.4;2.2;;;;;;;3.59;61.55859;94730.19;;;;
2020/02/29 00:32:56;;;;;;;2.4;2.2;;;;;;;3.59;61.55859;94730.19;;;;
2020/02/29 00:33:58;;;;;;;2.8;2.1;;;;;;;3.6;61.89648;94732.78;;;;
2020/02/29 00:34:59;;;;;;;2.8;2.1;;;;;;;3.6;61.89648;94732.78;;;;
2020/02/29 00:36:00;;;;;;;2.8;2.1;;;;;;;3.6;61.89648;94732.78;;;;
2020/02/29 00:37:00;;;;;;;2.8;2.1;;;;;;;3.6;61.89648;94732.78;;;;
2020/02/29 00:38:01;;;;;;;2.8;2.1;;;;;;;3.6;61.89648;94732.78;;;;
2020/02/29 00:39:01;;;;;;;2.8;2.1;;;;;;;3.6;61.89648;94732.78;;;;
2020/02/29 00:40:46;;;;;;;2.8;2.1;;;;;;;3.6;61.89648;94732.78;;;;
2020/02/29 00:41:47;;;;;;;2.8;2.1;;;;;;;3.6;61.89648;94732.78;;;;
2020/02/29 00:42:51;;;;;;;2.8;2.1;;;;;;;3.6;61.89648;94732.78;;;;
2020/02/29 00:43:53;;;;;;;2.95;2.05;;;;;;;3.46;61.63379;94731.11;;;;
2020/02/29 00:44:54;;;;;;;2.95;2.05;;;;;;;3.46;61.63379;94731.11;;;;
2020/02/29 00:45:55;;;;;;;2.95;2.05;;;;;;;3.46;61.63379;94731.11;;;;
2020/02/29 00:46:58;;;;;;;3.5;2.2;;;;;;;3.48;62.03906;94737.07;;;;
2020/02/29 00:48:01;;;;;;;3.5;2.2;;;;;;;3.48;62.03906;94737.07;;;;
2020/02/29 00:49:02;;;;;;;3.5;2.2;;;;;;;3.48;62.03906;94737.07;;;;
2020/02/29 00:50:03;;;;;;;3.5;2.2;;;;;;;3.48;62.03906;94737.07;;;;
2020/02/29 00:51:05;;;;;;;3.5;2.2;;;;;;;3.48;62.03906;94737.07;;;;
2020/02/29 00:52:10;;;;;;;3.5;2.2;;;;;;;3.48;62.03906;94737.07;;;;
2020/02/29 00:53:11;;;;;;;3.5;2.2;;;;;;;3.48;62.03906;94737.07;;;;
2020/02/29 00:54:12;;;;;;;3.5;2.2;;;;;;;3.48;62.03906;94737.07;;;;
2020/02/29 00:55:13;;;;;;;3.5;2.2;;;;;;;3.48;62.03906;94737.07;;;;
2020/02/29 00:56:13;;;;;;;3.5;2.2;;;;;;;3.48;62.03906;94737.07;;;;
2020/02/29 00:57:14;;;;;;;4.05;2.35;;;;;;;3.36;61.90625;94686.19;;;;
2020/02/29 00:58:15;;;;;;;4.05;2.35;;;;;;;3.36;61.90625;94686.19;;;;
2020/02/29 00:59:16;;;;;;;4.05;2.35;;;;;;;3.36;61.90625;94686.19;;;;
2020/02/29 01:00:17;;;;;;;3.350001;2.2;;;;;;;3.37;62.50879;94681.15;;;;
2020/02/29 01:01:42;;;;;;;3.350001;2.2;;;;;;;3.37;62.50879;94681.15;;;;
2020/02/29 01:02:50;;;;;;;3.350001;2.2;;;;;;;3.37;62.50879;94681.15;;;;
2020/02/29 01:04:03;;;;;;;3.350001;2.2;;;;;;;3.37;62.50879;94681.15;;;;
2020/02/29 01:06:42;;;;;;;3.350001;2.2;;;;;;;3.37;62.50879;94681.15;;;;
2020/02/29 01:07:48;;;;;;;3.350001;2.2;;;;;;;3.37;62.50879;94681.15;;;;
2020/02/29 01:08:48;;;;;;;3.350001;2.2;;;;;;;3.37;62.50879;94681.15;;;;
2020/02/29 01:09:51;;;;;;;3.350001;2.2;;;;;;;3.37;62.50879;94681.15;;;;
2020/02/29 01:10:54;;;;;;;3.25;2.25;;;;;;;3.21;62.83301;94644.64;;;;
2020/02/29 01:11:54;;;;;;;3.25;2.25;;;;;;;3.21;62.83301;94644.64;;;;
2020/02/29 01:12:55;;;;;;;3.25;2.25;;;;;;;3.21;62.83301;94644.64;;;;
2020/02/29 01:13:56;;;;;;;3.4;2.35;;;;;;;3.24;63.54492;94627.39;;;;
2020/02/29 01:14:56;;;;;;;3.4;2.35;;;;;;;3.24;63.54492;94627.39;;;;
2020/02/29 01:15:57;;;;;;;3.4;2.35;;;;;;;3.24;63.54492;94627.39;;;;
2020/02/29 01:16:58;;;;;;;3.4;2.35;;;;;;;3.24;63.54492;94627.39;;;;
2020/02/29 01:17:59;;;;;;;3.4;2.35;;;;;;;3.24;63.54492;94627.39;;;;
2020/02/29 01:19:00;;;;;;;3.4;2.35;;;;;;;3.24;63.54492;94627.39;;;;
2020/02/29 01:20:01;;;;;;;3.4;2.35;;;;;;;3.24;63.54492;94627.39;;;;
2020/02/29 01:21:05;;;;;;;3.4;2.35;;;;;;;3.24;63.54492;94627.39;;;;
2020/02/29 01:22:05;;;;;;;3.4;2.35;;;;;;;3.24;63.54492;94627.39;;;;
2020/02/29 01:23:10;;;;;;;3.4;2.35;;;;;;;3.24;63.54492;94627.39;;;;
2020/02/29 01:24:10;;;;;;;3.1;2.3;;;;;;;3.17;63.37695;94640.74;;;;
2020/02/29 01:25:11;;;;;;;3.1;2.3;;;;;;;3.17;63.37695;94640.74;;;;
2020/02/29 01:26:11;;;;;;;3.1;2.3;;;;;;;3.17;63.37695;94640.74;;;;
2020/02/29 01:27:13;;;;;;;3.1;2.45;;;;;;;3.22;63.95508;94635.6;;;;
2020/02/29 01:28:17;;;;;;;3.1;2.45;;;;;;;3.22;63.95508;94635.6;;;;
2020/02/29 01:29:25;;;;;;;3.1;2.45;;;;;;;3.22;63.95508;94635.6;;;;
2020/02/29 01:30:25;;;;;;;3.1;2.45;;;;;;;3.22;63.95508;94635.6;;;;
2020/02/29 01:31:27;;;;;;;3.1;2.45;;;;;;;3.22;63.95508;94635.6;;;;
2020/02/29 01:32:27;;;;;;;3.1;2.45;;;;;;;3.22;63.95508;94635.6;;;;
2020/02/29 01:33:28;;;;;;;3.1;2.45;;;;;;;3.22;63.95508;94635.6;;;;
2020/02/29 01:34:28;;;;;;;3.1;2.45;;;;;;;3.22;63.95508;94635.6;;;;
2020/02/29 01:35:29;;;;;;;3.1;2.45;;;;;;;3.22;63.95508;94635.6;;;;
2020/02/29 01:36:29;;;;;;;3.1;2.45;;;;;;;3.22;63.95508;94635.6;;;;
2020/02/29 01:37:30;;;;;;;2.65;1.9;;;;;;;3.24;63.95801;94630.88;;;;
2020/02/29 01:38:30;;;;;;;2.65;1.9;;;;;;;3.24;63.95801;94630.88;;;;
2020/02/29 01:39:31;;;;;;;2.65;1.9;;;;;;;3.24;63.95801;94630.88;;;;
2020/02/29 01:40:43;;;;;;;3.95;2.1;;;;;;;3.3;64.49219;94623.49;;;;
2020/02/29 01:41:43;;;;;;;3.95;2.1;;;;;;;3.3;64.49219;94623.49;;;;
2020/02/29 01:42:44;;;;;;;3.95;2.1;;;;;;;3.3;64.49219;94623.49;;;;
2020/02/29 01:43:44;;;;;;;3.95;2.1;;;;;;;3.3;64.49219;94623.49;;;;
2020/02/29 01:44:45;;;;;;;3.95;2.1;;;;;;;3.3;64.49219;94623.49;;;;
2020/02/29 01:45:46;;;;;;;3.95;2.1;;;;;;;3.3;64.49219;94623.49;;;;
2020/02/29 01:46:47;;;;;;;3.95;2.1;;;;;;;3.3;64.49219;94623.49;;;;
2020/02/29 01:47:47;;;;;;;3.95;2.1;;;;;;;3.3;64.49219;94623.49;;;;
2020/02/29 01:48:48;;;;;;;3.95;2.1;;;;;;;3.3;64.49219;94623.49;;;;
2020/02/29 01:49:48;;;;;;;3.95;2.1;;;;;;;3.3;64.49219;94623.49;;;;
2020/02/29 01:50:49;;;;;;;2.45;1.8;;;;;;;3.32;64.34863;94592.1;;;;
2020/02/29 01:51:51;;;;;;;2.45;1.8;;;;;;;3.32;64.34863;94592.1;;;;
2020/02/29 01:52:51;;;;;;;2.1;1.85;;;;;;;3.37;65.04199;94575.35;;;;
2020/02/29 01:53:52;;;;;;;2.1;1.85;;;;;;;3.37;65.04199;94575.35;;;;
2020/02/29 01:54:53;;;;;;;2.1;1.85;;;;;;;3.37;65.04199;94575.35;;;;
2020/02/29 01:55:53;;;;;;;2.1;1.85;;;;;;;3.37;65.04199;94575.35;;;;
2020/02/29 01:56:54;;;;;;;2.1;1.85;;;;;;;3.37;65.04199;94575.35;;;;
2020/02/29 01:57:54;;;;;;;2.1;1.85;;;;;;;3.37;65.04199;94575.35;;;;
2020/02/29 01:58:55;;;;;;;2.1;1.85;;;;;;;3.37;65.04199;94575.35;;;;
2020/02/29 01:59:55;;;;;;;2.1;1.85;;;;;;;3.37;65.04199;94575.35;;;;
2020/02/29 02:00:56;;;;;;;2.1;1.85;;;;;;;3.37;65.04199;94575.35;;;;
2020/02/29 02:01:56;;;;;;;2.1;1.85;;;;;;;3.37;65.04199;94575.35;;;;
2020/02/29 02:02:58;;;;;;;2.1;1.85;;;;;;;3.37;65.04199;94575.35;;;;
2020/02/29 02:03:58;;;;;;;2.4;1.8;;;;;;;3.37;64.87305;94529.08;;;;
2020/02/29 02:04:59;;;;;;;2.4;1.8;;;;;;;3.37;64.87305;94529.08;;;;
2020/02/29 02:05:59;;;;;;;2.4;1.8;;;;;;;3.37;64.87305;94529.08;;;;
2020/02/29 02:07:00;;;;;;;1.85;1.7;;;;;;;3.43;65.25195;94520.65;;;;
2020/02/29 02:08:01;;;;;;;1.85;1.7;;;;;;;3.43;65.25195;94520.65;;;;
2020/02/29 02:09:02;;;;;;;1.85;1.7;;;;;;;3.43;65.25195;94520.65;;;;
2020/02/29 02:10:57;;;;;;;1.85;1.7;;;;;;;3.43;65.25195;94520.65;;;;
2020/02/29 02:11:58;;;;;;;1.85;1.7;;;;;;;3.43;65.25195;94520.65;;;;
2020/02/29 02:12:59;;;;;;;1.85;1.7;;;;;;;3.43;65.25195;94520.65;;;;
2020/02/29 02:14:00;;;;;;;1.85;1.7;;;;;;;3.43;65.25195;94520.65;;;;
2020/02/29 02:15:00;;;;;;;1.85;1.7;;;;;;;3.43;65.25195;94520.65;;;;
2020/02/29 02:16:11;;;;;;;1.85;1.7;;;;;;;3.43;65.25195;94520.65;;;;
2020/02/29 02:17:12;;;;;;;2.8;1.6;;;;;;;3.47;64.81445;94511.72;;;;
2020/02/29 02:18:16;;;;;;;2.8;1.6;;;;;;;3.47;64.81445;94511.72;;;;
2020/02/29 02:19:17;;;;;;;2.8;1.6;;;;;;;3.47;64.81445;94511.72;;;;
2020/02/29 02:20:17;;;;;;;2.65;1.65;;;;;;;3.53;65.13086;94503.67;;;;
2020/02/29 02:21:27;;;;;;;2.65;1.65;;;;;;;3.53;65.13086;94503.67;;;;
2020/02/29 02:22:27;;;;;;;2.65;1.65;;;;;;;3.53;65.13086;94503.67;;;;
2020/02/29 02:23:28;;;;;;;2.65;1.65;;;;;;;3.53;65.13086;94503.67;;;;
2020/02/29 02:24:28;;;;;;;2.65;1.65;;;;;;;3.53;65.13086;94503.67;;;;
2020/02/29 02:25:29;;;;;;;2.65;1.65;;;;;;;3.53;65.13086;94503.67;;;;
2020/02/29 02:26:29;;;;;;;2.65;1.65;;;;;;;3.53;65.13086;94503.67;;;;
2020/02/29 02:27:30;;;;;;;2.65;1.65;;;;;;;3.53;65.13086;94503.67;;;;
2020/02/29 02:28:30;;;;;;;2.65;1.65;;;;;;;3.53;65.13086;94503.67;;;;
2020/02/29 02:29:32;;;;;;;2.65;1.65;;;;;;;3.53;65.13086;94503.67;;;;
2020/02/29 02:30:33;;;;;;;2;1.5;;;;;;;3.56;64.89063;94491.35;;;;
2020/02/29 02:31:34;;;;;;;2;1.5;;;;;;;3.56;64.89063;94491.35;;;;
2020/02/29 02:32:35;;;;;;;2;1.5;;;;;;;3.56;64.89063;94491.35;;;;
2020/02/29 02:33:36;;;;;;;1.95;1.7;;;;;;;3.62;65.1543;94485.97;;;;
2020/02/29 02:34:36;;;;;;;1.95;1.7;;;;;;;3.62;65.1543;94485.97;;;;
2020/02/29 02:35:37;;;;;;;1.95;1.7;;;;;;;3.62;65.1543;94485.97;;;;
2020/02/29 02:36:38;;;;;;;1.95;1.7;;;;;;;3.62;65.1543;94485.97;;;;
2020/02/29 02:37:46;;;;;;;1.95;1.7;;;;;;;3.62;65.1543;94485.97;;;;
2020/02/29 02:38:47;;;;;;;1.95;1.7;;;;;;;3.62;65.1543;94485.97;;;;
2020/02/29 02:39:47;;;;;;;1.95;1.7;;;;;;;3.62;65.1543;94485.97;;;;
2020/02/29 02:40:49;;;;;;;1.95;1.7;;;;;;;3.62;65.1543;94485.97;;;;
2020/02/29 02:41:50;;;;;;;1.95;1.7;;;;;;;3.62;65.1543;94485.97;;;;
2020/02/29 02:42:51;;;;;;;1.95;1.7;;;;;;;3.62;65.1543;94485.97;;;;
2020/02/29 02:43:52;;;;;;;1.95;1.75;;;;;;;3.66;64.92773;94485.86;;;;
2020/02/29 02:44:53;;;;;;;1.95;1.75;;;;;;;3.66;64.92773;94485.86;;;;
2020/02/29 02:45:56;;;;;;;2;1.6;;;;;;;3.73;65.29785;94483.04;;;;
2020/02/29 02:46:56;;;;;;;2;1.6;;;;;;;3.73;65.29785;94483.04;;;;
2020/02/29 02:47:58;;;;;;;2;1.6;;;;;;;3.73;65.29785;94483.04;;;;
2020/02/29 02:49:00;;;;;;;2;1.6;;;;;;;3.73;65.29785;94483.04;;;;
2020/02/29 02:50:02;;;;;;;2;1.6;;;;;;;3.73;65.29785;94483.04;;;;
2020/02/29 02:51:08;;;;;;;2;1.6;;;;;;;3.73;65.29785;94483.04;;;;
2020/02/29 02:52:09;;;;;;;2;1.6;;;;;;;3.73;65.29785;94483.04;;;;
2020/02/29 02:53:12;;;;;;;2;1.6;;;;;;;3.73;65.29785;94483.04;;;;
2020/02/29 02:54:13;;;;;;;2;1.6;;;;;;;3.73;65.29785;94483.04;;;;
2020/02/29 02:55:13;;;;;;;2;1.6;;;;;;;3.73;65.29785;94483.04;;;;
2020/02/29 02:56:15;;;;;;;2;1.6;;;;;;;3.73;65.29785;94483.04;;;;
2020/02/29 02:57:16;;;;;;;1.7;1.6;;;;;;;3.75;65.00488;94470.4;;;;
2020/02/29 02:58:16;;;;;;;1.7;1.6;;;;;;;3.75;65.00488;94470.4;;;;
2020/02/29 02:59:17;;;;;;;2.5;1.7;;;;;;;3.8;65.35059;94465.64;;;;
2020/02/29 03:00:17;;;;;;;2.5;1.7;;;;;;;3.8;65.35059;94465.64;;;;
2020/02/29 03:01:31;;;;;;;2.5;1.7;;;;;;;3.8;65.35059;94465.64;;;;
2020/02/29 03:02:31;;;;;;;2.5;1.7;;;;;;;3.8;65.35059;94465.64;;;;
2020/02/29 03:03:31;;;;;;;2.5;1.7;;;;;;;3.8;65.35059;94465.64;;;;
2020/02/29 03:04:32;;;;;;;2.5;1.7;;;;;;;3.8;65.35059;94465.64;;;;
2020/02/29 03:05:32;;;;;;;2.5;1.7;;;;;;;3.8;65.35059;94465.64;;;;
2020/02/29 03:06:36;;;;;;;2.5;1.7;;;;;;;3.8;65.35059;94465.64;;;;
2020/02/29 03:07:37;;;;;;;2.5;1.7;;;;;;;3.8;65.35059;94465.64;;;;
2020/02/29 03:08:38;;;;;;;2.5;1.7;;;;;;;3.8;65.35059;94465.64;;;;
2020/02/29 03:09:38;;;;;;;2.5;1.7;;;;;;;3.8;65.35059;94465.64;;;;
2020/02/29 03:11:32;;;;;;;2.299999;1.65;;;;;;;3.82;65.16309;94458.24;;;;
2020/02/29 03:12:32;;;;;;;2.75;1.6;;;;;;;3.87;65.46582;94458.83;;;;
2020/02/29 03:13:33;;;;;;;2.75;1.6;;;;;;;3.87;65.46582;94458.83;;;;
2020/02/29 03:14:33;;;;;;;2.75;1.6;;;;;;;3.87;65.46582;94458.83;;;;
2020/02/29 03:15:34;;;;;;;2.75;1.6;;;;;;;3.87;65.46582;94458.83;;;;
2020/02/29 03:16:34;;;;;;;2.75;1.6;;;;;;;3.87;65.46582;94458.83;;;;
2020/02/29 03:17:35;;;;;;;2.75;1.6;;;;;;;3.87;65.46582;94458.83;;;;
2020/02/29 03:18:35;;;;;;;2.75;1.6;;;;;;;3.87;65.46582;94458.83;;;;
2020/02/29 03:19:36;;;;;;;2.75;1.6;;;;;;;3.87;65.46582;94458.83;;;;
2020/02/29 03:20:37;;;;;;;2.75;1.6;;;;;;;3.87;65.46582;94458.83;;;;
2020/02/29 03:21:37;;;;;;;2.75;1.6;;;;;;;3.87;65.46582;94458.83;;;;
2020/02/29 03:22:38;;;;;;;2.75;1.6;;;;;;;3.87;65.46582;94458.83;;;;
2020/02/29 03:23:39;;;;;;;2.65;1.6;;;;;;;3.88;65.15234;94442.7;;;;
2020/02/29 03:24:39;;;;;;;2.65;1.6;;;;;;;3.88;65.15234;94442.7;;;;
2020/02/29 03:25:40;;;;;;;2.65;1.6;;;;;;;3.88;65.15234;94442.7;;;;
2020/02/29 03:26:40;;;;;;;2.65;1.6;;;;;;;3.88;65.15234;94442.7;;;;
2020/02/29 03:27:41;;;;;;;2.65;1.6;;;;;;;3.88;65.15234;94442.7;;;;
2020/02/29 03:28:42;;;;;;;2.65;1.6;;;;;;;3.88;65.15234;94442.7;;;;
2020/02/29 03:29:45;;;;;;;2.65;1.6;;;;;;;3.88;65.15234;94442.7;;;;
2020/02/29 03:30:46;;;;;;;2.65;1.6;;;;;;;3.88;65.15234;94442.7;;;;
2020/02/29 03:31:48;;;;;;;2.65;1.6;;;;;;;3.88;65.15234;94442.7;;;;
2020/02/29 03:32:50;;;;;;;2.65;1.6;;;;;;;3.88;65.15234;94442.7;;;;
2020/02/29 03:33:55;;;;;;;2.2;1.6;;;;;;;3.87;65.13867;94451.32;;;;
2020/02/29 03:34:56;;;;;;;2.2;1.6;;;;;;;3.87;65.13867;94451.32;;;;
2020/02/29 03:35:56;;;;;;;2.2;1.6;;;;;;;3.87;65.13867;94451.32;;;;
2020/02/29 03:36:57;;;;;;;2.2;1.6;;;;;;;3.87;65.13867;94451.32;;;;
2020/02/29 03:37:57;;;;;;;2.2;1.6;;;;;;;3.87;65.13867;94451.32;;;;
2020/02/29 03:38:59;;;;;;;2.2;1.6;;;;;;;3.87;65.13867;94451.32;;;;
2020/02/29 03:40:00;;;;;;;2.2;1.6;;;;;;;3.87;65.13867;94451.32;;;;
2020/02/29 03:41:00;;;;;;;2.2;1.6;;;;;;;3.87;65.13867;94451.32;;;;
2020/02/29 03:42:01;;;;;;;2.2;1.6;;;;;;;3.87;65.13867;94451.32;;;;
2020/02/29 03:43:08;;;;;;;2.2;1.6;;;;;;;3.87;65.13867;94451.32;;;;
2020/02/29 03:44:13;;;;;;;2.2;1.6;;;;;;;3.87;65.13867;94451.32;;;;
2020/02/29 03:45:18;;;;;;;1.55;1.4;;;;;;;3.81;65.22461;94428.17;;;;
2020/02/29 03:46:21;;;;;;;1.55;1.4;;;;;;;3.81;65.22461;94428.17;;;;
2020/02/29 03:47:21;;;;;;;1.55;1.4;;;;;;;3.81;65.22461;94428.17;;;;
2020/02/29 03:48:23;;;;;;;1.55;1.4;;;;;;;3.81;65.22461;94428.17;;;;
2020/02/29 03:49:24;;;;;;;1.55;1.4;;;;;;;3.81;65.22461;94428.17;;;;
2020/02/29 03:50:25;;;;;;;1.55;1.4;;;;;;;3.81;65.22461;94428.17;;;;
2020/02/29 03:51:27;;;;;;;1.55;1.4;;;;;;;3.81;65.22461;94428.17;;;;
2020/02/29 03:52:28;;;;;;;1.55;1.4;;;;;;;3.81;65.22461;94428.17;;;;
2020/02/29 03:53:30;;;;;;;1.55;1.4;;;;;;;3.81;65.22461;94428.17;;;;
2020/02/29 03:54:40;;;;;;;1.55;1.4;;;;;;;3.81;65.22461;94428.17;;;;
2020/02/29 03:55:43;;;;;;;2.3;1.6;;;;;;;3.85;65.13574;94412.41;;;;
2020/02/29 03:56:44;;;;;;;2.3;1.6;;;;;;;3.85;65.13574;94412.41;;;;
2020/02/29 03:57:44;;;;;;;2.3;1.6;;;;;;;3.85;65.13574;94412.41;;;;
2020/02/29 03:58:45;;;;;;;2.3;1.6;;;;;;;3.85;65.13574;94412.41;;;;
2020/02/29 03:59:46;;;;;;;2.3;1.6;;;;;;;3.85;65.13574;94412.41;;;;
2020/02/29 04:00:46;;;;;;;2.3;1.6;;;;;;;3.85;65.13574;94412.41;;;;
2020/02/29 04:01:47;;;;;;;2.3;1.6;;;;;;;3.85;65.13574;94412.41;;;;
2020/02/29 04:02:48;;;;;;;2.3;1.6;;;;;;;3.85;65.13574;94412.41;;;;
2020/02/29 04:03:48;;;;;;;2.3;1.6;;;;;;;3.85;65.13574;94412.41;;;;
2020/02/29 04:04:49;;;;;;;2.3;1.6;;;;;;;3.85;65.13574;94412.41;;;;
2020/02/29 04:05:50;;;;;;;1.7;1.6;;;;;;;3.82;65.15234;94402.69;;;;
2020/02/29 04:06:51;;;;;;;1.7;1.6;;;;;;;3.82;65.15234;94402.69;;;;
2020/02/29 04:07:53;;;;;;;1.7;1.6;;;;;;;3.82;65.15234;94402.69;;;;
2020/02/29 04:08:55;;;;;;;1.9;1.7;;;;;;;3.87;65.34961;94393.53;;;;
2020/02/29 04:09:56;;;;;;;1.9;1.7;;;;;;;3.87;65.34961;94393.53;;;;
2020/02/29 04:10:56;;;;;;;1.9;1.7;;;;;;;3.87;65.34961;94393.53;;;;
2020/02/29 04:11:57;;;;;;;1.9;1.7;;;;;;;3.87;65.34961;94393.53;;;;
2020/02/29 04:12:58;;;;;;;1.9;1.7;;;;;;;3.87;65.34961;94393.53;;;;
2020/02/29 04:14:00;;;;;;;1.9;1.7;;;;;;;3.87;65.34961;94393.53;;;;
2020/02/29 04:15:01;;;;;;;1.9;1.7;;;;;;;3.87;65.34961;94393.53;;;;
2020/02/29 04:16:03;;;;;;;1.9;1.7;;;;;;;3.87;65.34961;94393.53;;;;
2020/02/29 04:17:04;;;;;;;1.9;1.7;;;;;;;3.87;65.34961;94393.53;;;;
2020/02/29 04:18:06;;;;;;;1.9;1.7;;;;;;;3.87;65.34961;94393.53;;;;
2020/02/29 04:19:08;;;;;;;1.6;1.3;;;;;;;3.81;65.18262;94377.86;;;;
2020/02/29 04:20:08;;;;;;;1.6;1.3;;;;;;;3.81;65.18262;94377.86;;;;
2020/02/29 04:21:11;;;;;;;1.6;1.3;;;;;;;3.81;65.18262;94377.86;;;;
2020/02/29 04:22:12;;;;;;;2.8;1.6;;;;;;;3.85;65.30469;94377.7;;;;
2020/02/29 04:23:13;;;;;;;2.8;1.6;;;;;;;3.85;65.30469;94377.7;;;;
2020/02/29 04:24:15;;;;;;;2.8;1.6;;;;;;;3.85;65.30469;94377.7;;;;
2020/02/29 04:25:17;;;;;;;2.8;1.6;;;;;;;3.85;65.30469;94377.7;;;;
2020/02/29 04:26:18;;;;;;;2.8;1.6;;;;;;;3.85;65.30469;94377.7;;;;
2020/02/29 04:27:18;;;;;;;2.8;1.6;;;;;;;3.85;65.30469;94377.7;;;;
2020/02/29 04:28:19;;;;;;;2.8;1.6;;;;;;;3.85;65.30469;94377.7;;;;
2020/02/29 04:29:21;;;;;;;2.8;1.6;;;;;;;3.85;65.30469;94377.7;;;;
2020/02/29 04:30:22;;;;;;;2.8;1.6;;;;;;;3.85;65.30469;94377.7;;;;
2020/02/29 04:31:25;;;;;;;2.8;1.6;;;;;;;3.85;65.30469;94377.7;;;;
2020/02/29 04:32:26;;;;;;;1.8;1.55;;;;;;;3.83;65.13281;94368.17;;;;
2020/02/29 04:33:27;;;;;;;1.8;1.55;;;;;;;3.83;65.13281;94368.17;;;;
2020/02/29 04:34:27;;;;;;;1.8;1.55;;;;;;;3.83;65.13281;94368.17;;;;
2020/02/29 04:35:28;;;;;;;1.8;1.55;;;;;;;3.83;65.13281;94368.17;;;;
2020/02/29 04:36:28;;;;;;;1.8;1.55;;;;;;;3.83;65.13281;94368.17;;;;
2020/02/29 04:37:29;;;;;;;1.8;1.55;;;;;;;3.83;65.13281;94368.17;;;;
2020/02/29 04:38:30;;;;;;;1.8;1.55;;;;;;;3.83;65.13281;94368.17;;;;
2020/02/29 04:39:32;;;;;;;1.8;1.55;;;;;;;3.83;65.13281;94368.17;;;;
2020/02/29 04:40:37;;;;;;;1.8;1.55;;;;;;;3.83;65.13281;94368.17;;;;
2020/02/29 04:41:40;;;;;;;1.8;1.55;;;;;;;3.83;65.13281;94368.17;;;;
2020/02/29 04:42:41;;;;;;;4.3;2.45;;;;;;;3.91;65.05078;94387.53;;;;
2020/02/29 04:43:46;;;;;;;4.3;2.45;;;;;;;3.91;65.05078;94387.53;;;;
2020/02/29 04:44:47;;;;;;;4.3;2.45;;;;;;;3.91;65.05078;94387.53;;;;
2020/02/29 04:45:48;;;;;;;4.3;2.45;;;;;;;3.91;65.05078;94387.53;;;;
2020/02/29 04:46:56;;;;;;;4.3;2.45;;;;;;;3.91;65.05078;94387.53;;;;
2020/02/29 04:47:58;;;;;;;4.3;2.45;;;;;;;3.91;65.05078;94387.53;;;;
2020/02/29 04:49:01;;;;;;;4.3;2.45;;;;;;;3.91;65.05078;94387.53;;;;
2020/02/29 04:50:03;;;;;;;4.3;2.45;;;;;;;3.91;65.05078;94387.53;;;;
2020/02/29 04:51:06;;;;;;;4.3;2.45;;;;;;;3.91;65.05078;94387.53;;;;
2020/02/29 04:52:06;;;;;;;4.3;2.45;;;;;;;3.91;65.05078;94387.53;;;;
2020/02/29 04:53:10;;;;;;;4.3;2.45;;;;;;;3.91;65.05078;94387.53;;;;
2020/02/29 04:54:11;;;;;;;3.1;1.6;;;;;;;3.99;64.99902;94360.57;;;;
2020/02/29 04:55:12;;;;;;;3.1;1.6;;;;;;;3.99;64.99902;94360.57;;;;
2020/02/29 04:56:15;;;;;;;3.1;1.6;;;;;;;3.99;64.99902;94360.57;;;;
2020/02/29 04:57:16;;;;;;;3.1;1.6;;;;;;;3.99;64.99902;94360.57;;;;
2020/02/29 04:58:16;;;;;;;3.1;1.6;;;;;;;3.99;64.99902;94360.57;;;;
2020/02/29 04:59:18;;;;;;;3.1;1.6;;;;;;;3.99;64.99902;94360.57;;;;
2020/02/29 05:00:18;;;;;;;3.1;1.6;;;;;;;3.99;64.99902;94360.57;;;;
2020/02/29 05:01:26;;;;;;;3.1;1.6;;;;;;;3.99;64.99902;94360.57;;;;
2020/02/29 05:02:26;;;;;;;3.1;1.6;;;;;;;3.99;64.99902;94360.57;;;;
2020/02/29 05:03:27;;;;;;;3.1;1.6;;;;;;;3.99;64.99902;94360.57;;;;
2020/02/29 05:04:27;;;;;;;2.8;1.55;;;;;;;4.21;64.72461;94340;;;;
2020/02/29 05:05:28;;;;;;;2.8;1.55;;;;;;;4.21;64.72461;94340;;;;
2020/02/29 05:06:29;;;;;;;2.8;1.55;;;;;;;4.21;64.72461;94340;;;;
2020/02/29 05:07:30;;;;;;;2.8;1.55;;;;;;;4.21;64.72461;94340;;;;
2020/02/29 05:08:30;;;;;;;2.8;1.55;;;;;;;4.21;64.72461;94340;;;;
2020/02/29 05:09:31;;;;;;;2.8;1.55;;;;;;;4.21;64.72461;94340;;;;
2020/02/29 05:10:37;;;;;;;2.8;1.55;;;;;;;4.21;64.72461;94340;;;;
2020/02/29 05:11:38;;;;;;;2.8;1.55;;;;;;;4.21;64.72461;94340;;;;
2020/02/29 05:12:50;;;;;;;2.8;1.55;;;;;;;4.21;64.72461;94340;;;;
2020/02/29 05:14:00;;;;;;;2.8;1.55;;;;;;;4.21;64.72461;94340;;;;
2020/02/29 05:15:01;;;;;;;3.45;1.45;;;;;;;4.37;64.15625;94306.57;;;;
2020/02/29 05:16:08;;;;;;;3.45;1.45;;;;;;;4.37;64.15625;94306.57;;;;
2020/02/29 05:17:14;;;;;;;3.45;1.45;;;;;;;4.37;64.15625;94306.57;;;;
2020/02/29 05:18:17;;;;;;;3.45;1.45;;;;;;;4.37;64.15625;94306.57;;;;
2020/02/29 05:19:21;;;;;;;3.45;1.45;;;;;;;4.37;64.15625;94306.57;;;;
2020/02/29 05:20:22;;;;;;;3.45;1.45;;;;;;;4.37;64.15625;94306.57;;;;
2020/02/29 05:21:22;;;;;;;3.45;1.45;;;;;;;4.37;64.15625;94306.57;;;;
2020/02/29 05:22:23;;;;;;;3.45;1.45;;;;;;;4.37;64.15625;94306.57;;;;
2020/02/29 05:23:24;;;;;;;3.45;1.45;;;;;;;4.37;64.15625;94306.57;;;;
2020/02/29 05:24:25;;;;;;;3.45;1.45;;;;;;;4.37;64.15625;94306.57;;;;
2020/02/29 05:25:26;;;;;;;2.699999;1.7;;;;;;;4.53;63.87402;94276.07;;;;
2020/02/29 05:26:26;;;;;;;2.699999;1.7;;;;;;;4.53;63.87402;94276.07;;;;
2020/02/29 05:27:27;;;;;;;2.699999;1.7;;;;;;;4.53;63.87402;94276.07;;;;
2020/02/29 05:28:28;;;;;;;2.699999;1.7;;;;;;;4.53;63.87402;94276.07;;;;
2020/02/29 05:29:28;;;;;;;2.699999;1.7;;;;;;;4.53;63.87402;94276.07;;;;
2020/02/29 05:30:29;;;;;;;2.699999;1.7;;;;;;;4.53;63.87402;94276.07;;;;
2020/02/29 05:31:29;;;;;;;2.699999;1.7;;;;;;;4.53;63.87402;94276.07;;;;
2020/02/29 05:32:30;;;;;;;2.699999;1.7;;;;;;;4.53;63.87402;94276.07;;;;
2020/02/29 05:33:31;;;;;;;2.699999;1.7;;;;;;;4.53;63.87402;94276.07;;;;
2020/02/29 05:34:33;;;;;;;2.699999;1.7;;;;;;;4.53;63.87402;94276.07;;;;
2020/02/29 05:35:36;;;;;;;2.699999;1.7;;;;;;;4.53;63.87402;94276.07;;;;
2020/02/29 05:36:39;;;;;;;2.7;1.65;;;;;;;4.57;63.7627;94259.45;;;;
2020/02/29 05:37:40;;;;;;;2.7;1.65;;;;;;;4.57;63.7627;94259.45;;;;
2020/02/29 05:38:41;;;;;;;2.7;1.65;;;;;;;4.57;63.7627;94259.45;;;;
2020/02/29 05:39:42;;;;;;;2.7;1.65;;;;;;;4.57;63.7627;94259.45;;;;
2020/02/29 05:40:43;;;;;;;2.7;1.65;;;;;;;4.57;63.7627;94259.45;;;;
2020/02/29 05:41:44;;;;;;;2.7;1.65;;;;;;;4.57;63.7627;94259.45;;;;
2020/02/29 05:42:44;;;;;;;2.7;1.65;;;;;;;4.57;63.7627;94259.45;;;;
2020/02/29 05:43:45;;;;;;;2.7;1.65;;;;;;;4.57;63.7627;94259.45;;;;
2020/02/29 05:44:46;;;;;;;2.7;1.65;;;;;;;4.57;63.7627;94259.45;;;;
2020/02/29 05:45:46;;;;;;;2.7;1.65;;;;;;;4.57;63.7627;94259.45;;;;
2020/02/29 05:46:47;;;;;;;3.5;1.55;;;;;;;4.68;63.65332;94287.59;;;;
2020/02/29 05:47:48;;;;;;;3.5;1.55;;;;;;;4.68;63.65332;94287.59;;;;
2020/02/29 05:48:49;;;;;;;3.5;1.55;;;;;;;4.68;63.65332;94287.59;;;;
2020/02/29 05:49:50;;;;;;;3.5;1.55;;;;;;;4.68;63.65332;94287.59;;;;
2020/02/29 05:50:50;;;;;;;3.5;1.55;;;;;;;4.68;63.65332;94287.59;;;;
2020/02/29 05:51:51;;;;;;;3.5;1.55;;;;;;;4.68;63.65332;94287.59;;;;
2020/02/29 05:52:51;;;;;;;3.5;1.55;;;;;;;4.68;63.65332;94287.59;;;;
2020/02/29 05:53:52;;;;;;;3.5;1.55;;;;;;;4.68;63.65332;94287.59;;;;
2020/02/29 05:54:52;;;;;;;3.5;1.55;;;;;;;4.68;63.65332;94287.59;;;;
2020/02/29 05:55:53;;;;;;;3.5;1.55;;;;;;;4.68;63.65332;94287.59;;;;
2020/02/29 05:56:53;;;;;;;3.5;1.55;;;;;;;4.68;63.65332;94287.59;;;;
2020/02/29 05:57:54;;;;;;;2.6;1.5;;;;;;;4.71;63.57324;94267.08;;;;
2020/02/29 05:58:54;;;;;;;2.6;1.5;;;;;;;4.71;63.57324;94267.08;;;;
2020/02/29 05:59:55;;;;;;;2.6;1.5;;;;;;;4.71;63.57324;94267.08;;;;
2020/02/29 06:00:57;;;;;;;2.6;1.5;;;;;;;4.71;63.57324;94267.08;;;;
2020/02/29 06:01:57;;;;;;;2.6;1.5;;;;;;;4.71;63.57324;94267.08;;;;
2020/02/29 06:02:58;;;;;;;2.6;1.5;;;;;;;4.71;63.57324;94267.08;;;;
2020/02/29 06:03:59;;;;;;;2.6;1.5;;;;;;;4.71;63.57324;94267.08;;;;
2020/02/29 06:05:01;;;;;;;2.6;1.5;;;;;;;4.71;63.57324;94267.08;;;;
2020/02/29 06:06:03;;;;;;;2.6;1.5;;;;;;;4.71;63.57324;94267.08;;;;